Boa Vista の空港の天気 - METARとTAF

ボア・ヴィスタ国際空港 ( SBBV / BVB ) - ブラジル ロライマ州、Boa Vista
飛行場実況気象(Metar)
観測時間02/21 14:00 AMT (02/21 18:00 UTC)
風向・風速東北東 7m/s
視程10km以上
天気現象
全天の4割程度の雲 雲底高度 1220m
少しの雲 雲底高度 1370m
全天の4割程度の雲 雲底高度 2440m
気温34℃
湿度41%
気圧1011hPa
METARSBBV 211800Z 07014KT 9999 SCT040 FEW045TCU SCT080 34/19 Q1011
過去の天気等 Google飛行場航空写真 Wunderground天気予報

過去48時間のMETAR

飛行場予報(TAF)
発表時間: 2/21 12:00 AMT (2/21 16:00 UTC)
予報対象時間: 21日14時 AMT ~ 22日14時 AMT
風向・風速東 7m/s
視程10km以上
全天の8割程度の雲 雲底高度 1220m
少しの塔状積雲 雲底高度 1370m
21日17時 AMT ~ 21日19時 AMT に徐々に
風向・風速東 5m/s
少しの雲 雲底高度 910m
21日19時 AMT ~ 21日21時 AMT に徐々に
視程10km以上
なし
22日6時 AMT ~ 22日8時 AMT に徐々に
風向・風速東 6m/s
視程10km以上
全天の4割程度の雲 雲底高度 550m
22日11時 AMT ~ 22日13時 AMT に徐々に
全天の4割程度の雲 雲底高度 1220m
少しの塔状積雲 雲底高度 1370m
TAF SBBV 211600Z 2118/2218 09014KT 9999 BKN040 FEW045TCU TX34/2119Z T N26/2207Z
BECMG 2121/2123 09010KT FEW030
BECMG 2123/2201 CAVOK
BECMG 2210/2212 09012KT 9999 SCT018
BECMG 2215/2217 SCT040 FEW045TCU RMK PFM